Capt. T Le — WDC9568 — position and weather

sailwx.info

Track history (hours):
 
Tides and Currents Weather Stations Pressure Air Temp Water Temp Dewpoint Dewpoint Depression Visibility Wind Speed Wind Dir Waves Ship Positions

Capt. T Le

Owner: SO CAL SHIP SERVICES, INC, TERMINAL ISLAND, CA. More information available from US FCC via Universal Licensing System and Coast Guard Vessel Documentation Center.

Last reported at 2018-Jan-18 03:56 UTC. Time now 2018-Jan-18 04:15 UTC.
Position N 34°09' W 119°12'.

Length 38 m; draft 2 m.

Type: Ship (hazmat cat B). MMSI: 367104030.

Date/timePositionNaut miles runAvg speedWind from/ knotsBaromVisibWave heightAir tempDewpointWater temp
2018-Jan-18 03:56N 34°09' W 119°12'510.4
2018-Jan-18 03:27N 34°10' W 119°18'612.6
2018-Jan-18 02:59N 34°11' W 119°25'613.6
2018-Jan-18 02:30N 34°09' W 119°18'5 8.7
2018-Jan-18 01:59N 34°09' W 119°12'0 0.7
2018-Jan-18 01:29N 34°09' W 119°13'4 7.8
2018-Jan-18 01:00N 34°07' W 119°17'1 1.1
2018-Jan-18 00:00N 34°08' W 119°18'217.2
2018-Jan-17 23:54N 34°08' W 119°20'  
2018-Jan-12 14:56N 34°08' W 119°14'1 3.0
2018-Jan-12 14:29N 34°09' W 119°12'0 0.0
2018-Jan-12 13:55N 34°09' W 119°12'0 0.0
2018-Jan-12 13:29N 34°09' W 119°12'0 0.0
2018-Jan-12 12:59N 34°09' W 119°12'0 0.0
2018-Jan-12 12:29N 34°09' W 119°12'0 0.0
2018-Jan-12 11:57N 34°09' W 119°12'0 0.0
2018-Jan-12 11:30N 34°09' W 119°12'0 0.0
2018-Jan-12 10:58N 34°09' W 119°12'0 0.0
2018-Jan-12 10:25N 34°09' W 119°12'0 0.0
2018-Jan-12 10:00N 34°09' W 119°12'0 0.0
2018-Jan-12 09:30N 34°09' W 119°12'0 0.0
2018-Jan-12 08:58N 34°09' W 119°12'0 0.0
2018-Jan-12 08:25N 34°09' W 119°12'0 0.0
2018-Jan-12 08:00N 34°09' W 119°12'0 0.0
2018-Jan-12 07:31N 34°09' W 119°12'0 0.0
2018-Jan-12 06:58N 34°09' W 119°12'0 0.0
2018-Jan-12 06:28N 34°09' W 119°12'0 0.0
2018-Jan-12 06:00N 34°09' W 119°12'0 0.0
2018-Jan-12 05:29N 34°09' W 119°12'0 0.0
2018-Jan-12 05:01N 34°09' W 119°12'0 0.0
2018-Jan-12 04:30N 34°09' W 119°12'0 0.0
2018-Jan-12 03:59N 34°09' W 119°12'4 8.1
2018-Jan-12 03:30N 34°09' W 119°17'713.7
2018-Jan-12 03:00N 34°11' W 119°25'1017.4
2018-Jan-12 02:27N 34°09' W 119°13'1 2.7
2018-Jan-12 02:01N 34°09' W 119°12'1 1.7
2018-Jan-12 01:31N 34°09' W 119°13'0 0.9
2018-Jan-12 01:00N 34°09' W 119°13'1 1.1
2018-Jan-12 00:30N 34°08' W 119°13'4 7.9
2018-Jan-11 23:59N 34°10' W 119°18'510.9
2018-Jan-11 23:30N 34°10' W 119°24'612.3
2018-Jan-11 23:00N 34°08' W 119°17'714.0
2018-Jan-11 22:29N 34°11' W 119°25'0 0.0
2018-Jan-11 21:58N 34°11' W 119°25'511.7
2018-Jan-11 21:30N 34°16' W 119°29'612.4
2018-Jan-11 21:00N 34°21' W 119°32'2 4.0
2018-Jan-11 20:30N 34°23' W 119°30'0 0.0
2018-Jan-11 19:57N 34°23' W 119°30'0 0.2
2018-Jan-11 19:27N 34°23' W 119°31'1 1.1
2018-Jan-11 18:59N 34°23' W 119°31'3 6.5
2018-Jan-11 18:27N 34°19' W 119°31'916.7
2018-Jan-11 17:56N 34°12' W 119°26'1 1.8
2018-Jan-11 17:30N 34°11' W 119°25'612.0
2018-Jan-11 16:59N 34°09' W 119°18'4 7.9
2018-Jan-11 16:30N 34°08' W 119°14'612.7
2018-Jan-11 16:00N 34°10' W 119°21'2 3.6
2018-Jan-11 15:30N 34°10' W 119°23'713.6
2018-Jan-11 15:00N 34°08' W 119°15'3 5.6
2018-Jan-11 14:30N 34°09' W 119°12'0 0.0
2018-Jan-11 13:57N 34°09' W 119°12'0 0.8
2018-Jan-11 13:30N 34°09' W 119°13'0 0.6
2018-Jan-11 13:00N 34°09' W 119°13'1 1.1
2018-Jan-11 12:29N 34°09' W 119°12'0 0.0
2018-Jan-11 12:00N 34°09' W 119°12'0 0.0
2018-Jan-11 11:30N 34°09' W 119°12'0 0.0
2018-Jan-11 11:00N 34°09' W 119°12'0 0.0
2018-Jan-11 10:28N 34°09' W 119°12'0 0.0
2018-Jan-11 09:58N 34°09' W 119°12'0 0.0
2018-Jan-11 09:28N 34°09' W 119°12'0 0.0
2018-Jan-11 08:57N 34°09' W 119°12'0 0.0
2018-Jan-11 08:30N 34°09' W 119°12'0 0.0
2018-Jan-11 07:54N 34°09' W 119°12'0 0.0
2018-Jan-11 07:24N 34°09' W 119°12'0 0.0
2018-Jan-11 06:58N 34°09' W 119°12'0 0.0
2018-Jan-11 06:29N 34°09' W 119°12'0 0.0
2018-Jan-11 05:54N 34°09' W 119°12'0 0.0
2018-Jan-11 05:28N 34°09' W 119°12'0 0.0
2018-Jan-11 05:00N 34°09' W 119°12'0 0.0
2018-Jan-11 04:27N 34°09' W 119°12'0 0.0
2018-Jan-11 03:59N 34°09' W 119°12'3 5.9
2018-Jan-11 03:30N 34°09' W 119°16'815.6
2018-Jan-11 02:59N 34°11' W 119°25'4 9.0
2018-Jan-11 02:30N 34°10' W 119°20'712.3
2018-Jan-11 01:58N 34°09' W 119°12'0 0.0
2018-Jan-11 01:30N 34°09' W 119°12'4 8.5
2018-Jan-11 01:01N 34°07' W 119°17'4 8.2
2018-Jan-11 00:30N 34°09' W 119°12'4 8.4
2018-Jan-11 00:01N 34°07' W 119°17'815.3
2018-Jan-10 23:30N 34°11' W 119°25'5 8.2
2018-Jan-10 22:57N 34°09' W 119°20'3 6.7
2018-Jan-10 22:30N 34°07' W 119°17'3 6.7
2018-Jan-10 22:01N 34°08' W 119°13'0 0.0
2018-Jan-10 18:44N 34°09' W 119°13'1 3.2
2018-Jan-10 18:30N 34°09' W 119°12'4 7.9
2018-Jan-10 17:58N 34°07' W 119°17'4 8.3
2018-Jan-10 17:30N 34°09' W 119°12'0 0.0
2018-Jan-10 17:00N 34°09' W 119°12'1 1.5
2018-Jan-10 16:30N 34°08' W 119°13'916.4
2018-Jan-10 15:58N 34°11' W 119°24'2 3.7
2018-Jan-10 15:29N 34°09' W 119°22'612.3
2018-Jan-10 15:00N 34°08' W 119°15'3 5.3
2018-Jan-10 14:27N 34°09' W 119°12'0 0.4
2018-Jan-10 14:00N 34°09' W 119°12'2 4.3
2018-Jan-10 13:30N 34°08' W 119°15'2 4.4
2018-Jan-10 12:59N 34°09' W 119°12'0 0.1
2018-Jan-10 12:28N 34°09' W 119°12'0 0.0
2018-Jan-10 12:00N 34°09' W 119°12'0 0.0
2018-Jan-10 11:24N 34°09' W 119°12'0 0.0
2018-Jan-10 10:56N 34°09' W 119°12'0 0.0
2018-Jan-10 10:27N 34°09' W 119°12'0 0.0
2018-Jan-10 09:59N 34°09' W 119°12'0 0.0
2018-Jan-10 09:26N 34°09' W 119°12'0 0.0
2018-Jan-10 08:53N 34°09' W 119°12'0 0.0
2018-Jan-10 08:03N 34°09' W 119°12'0 0.0
2018-Jan-10 07:58N 34°09' W 119°12'0 0.0
2018-Jan-10 07:30N 34°09' W 119°12'0 0.0
2018-Jan-10 07:00N 34°09' W 119°12'0 0.0
2018-Jan-10 06:28N 34°09' W 119°12'0 0.0
2018-Jan-10 06:00N 34°09' W 119°12'0 0.0
2018-Jan-10 05:30N 34°09' W 119°12'0 0.0
2018-Jan-10 04:56N 34°09' W 119°12'0 0.0
2018-Jan-10 04:28N 34°09' W 119°12'0 0.0
2018-Jan-10 03:59N 34°09' W 119°12'0 0.0
2018-Jan-10 03:29N 34°09' W 119°12'0 0.0
2018-Jan-10 02:59N 34°09' W 119°12'0 0.0
2018-Jan-10 02:27N 34°09' W 119°12'0 0.0
2018-Jan-10 01:59N 34°09' W 119°12'2 4.5
2018-Jan-10 01:30N 34°09' W 119°15'917.1
2018-Jan-10 01:00N 34°11' W 119°25'814.8
2018-Jan-10 00:30N 34°09' W 119°16'2 3.1
2018-Jan-10 00:00N 34°08' W 119°15'714.4
2018-Jan-09 23:30N 34°10' W 119°23'2 3.5
2018-Jan-09 23:01N 34°11' W 119°25'0 0.0
2018-Jan-09 22:26N 34°11' W 119°25'1 1.4
2018-Jan-09 22:00N 34°11' W 119°25'913.8
2018-Jan-09 21:22N 34°09' W 119°14'1 3.8
2018-Jan-09 20:59N 34°09' W 119°12'0 0.0
2018-Jan-09 20:29N 34°09' W 119°12'0 0.0
2018-Jan-09 20:00N 34°09' W 119°12'0 0.6
2018-Jan-09 19:28N 34°09' W 119°12'2 4.7
2018-Jan-09 19:00N 34°09' W 119°15'815.4
2018-Jan-09 18:31N 34°11' W 119°24'1 2.7
2018-Jan-09 18:00N 34°11' W 119°25'816.0
2018-Jan-09 17:30N 34°09' W 119°16'3 5.7
2018-Jan-09 16:58N 34°09' W 119°12'0 0.0
2018-Jan-09 16:30N 34°09' W 119°12'610.3
2018-Jan-09 15:57N 34°08' W 119°19'4 9.1
2018-Jan-09 15:29N 34°10' W 119°24'814.1
2018-Jan-09 14:56N 34°08' W 119°15'3 5.3
2018-Jan-09 14:26N 34°09' W 119°12'0 0.0
2018-Jan-09 14:00N 34°09' W 119°12'0 0.0
2018-Jan-09 13:30N 34°09' W 119°12'0 0.0
2018-Jan-09 13:00N 34°09' W 119°12'0 0.0
2018-Jan-09 12:22N 34°09' W 119°12'0 0.0
2018-Jan-09 11:53N 34°09' W 119°12'0 0.0
2018-Jan-09 11:30N 34°09' W 119°12'0 0.0
2018-Jan-09 10:57N 34°09' W 119°12'0 0.0
2018-Jan-09 10:30N 34°09' W 119°12'0 0.0
2018-Jan-09 09:58N 34°09' W 119°12'0 0.0
2018-Jan-09 09:29N 34°09' W 119°12'0 0.0
2018-Jan-09 09:00N 34°09' W 119°12'0 0.0
2018-Jan-09 08:30N 34°09' W 119°12'0 0.0
2018-Jan-09 08:00N 34°09' W 119°12'0 0.0
2018-Jan-09 07:30N 34°09' W 119°12'0 0.0
2018-Jan-09 06:54N 34°09' W 119°12'0 0.0
2018-Jan-09 06:27N 34°09' W 119°12'0 0.0
2018-Jan-09 06:00N 34°09' W 119°12'0 0.0
2018-Jan-09 05:30N 34°09' W 119°12'0 0.0
2018-Jan-09 05:00N 34°09' W 119°12'0 0.0
2018-Jan-09 04:27N 34°09' W 119°12'0 0.0
2018-Jan-09 04:00N 34°09' W 119°12'0 0.0
2018-Jan-09 03:26N 34°09' W 119°12'0 0.0
2018-Jan-09 03:00N 34°09' W 119°12'0 0.0
2018-Jan-09 02:23N 34°09' W 119°12'0 0.0
2018-Jan-09 02:00N 34°09' W 119°12'0 0.0
2018-Jan-09 01:29N 34°09' W 119°12'0 0.0
2018-Jan-09 01:00N 34°09' W 119°12'0 0.0
2018-Jan-09 00:30N 34°09' W 119°12'4 7.5
2018-Jan-09 00:00N 34°07' W 119°16'814.8
2018-Jan-08 23:30N 34°11' W 119°24'2 5.0
2018-Jan-08 23:00N 34°10' W 119°21'815.0
2018-Jan-08 22:30N 34°09' W 119°12'3 6.1
2018-Jan-08 22:00N 34°07' W 119°16'3 6.7
2018-Jan-08 21:30N 34°09' W 119°12'0 0.4
2018-Jan-08 21:00N 34°09' W 119°12'712.5
2018-Jan-08 20:29N 34°09' W 119°20'5 9.8
2018-Jan-08 20:00N 34°11' W 119°25'0 0.0
2018-Jan-08 19:30N 34°11' W 119°25'0 0.0
2018-Jan-08 19:00N 34°11' W 119°25'0 0.0
2018-Jan-08 18:27N 34°11' W 119°25'0 0.0
2018-Jan-08 18:00N 34°11' W 119°25'0 0.0
2018-Jan-08 17:30N 34°11' W 119°25'0 0.0
2018-Jan-08 17:00N 34°11' W 119°25'0 0.1
2018-Jan-08 16:27N 34°11' W 119°25'1 2.9
2018-Jan-08 16:00N 34°10' W 119°24'814.9
2018-Jan-08 15:28N 34°08' W 119°15'2 5.1
2018-Jan-08 14:59N 34°09' W 119°12'0 0.0
2018-Jan-08 14:29N 34°09' W 119°12'0 0.0
2018-Jan-08 13:58N 34°09' W 119°12'0 0.0
2018-Jan-08 13:29N 34°09' W 119°12'0 0.0
2018-Jan-08 13:00N 34°09' W 119°12'0 0.0
2018-Jan-08 12:30N 34°09' W 119°12'0 0.0
2018-Jan-08 12:00N 34°09' W 119°12'0 0.0
2018-Jan-08 11:30N 34°09' W 119°12'0 0.0
2018-Jan-08 10:58N 34°09' W 119°12'0 0.0
2018-Jan-08 10:30N 34°09' W 119°12'0 0.0
2018-Jan-08 10:00N 34°09' W 119°12'0 0.0
2018-Jan-08 09:29N 34°09' W 119°12'0 0.0
2018-Jan-08 08:59N 34°09' W 119°12'0 0.0
2018-Jan-08 08:30N 34°09' W 119°12'0 0.0
2018-Jan-08 08:00N 34°09' W 119°12'0 0.0
2018-Jan-08 07:30N 34°09' W 119°12'0 0.0
2018-Jan-08 06:55N 34°09' W 119°12'0 0.0
2018-Jan-08 06:30N 34°09' W 119°12'0 0.0
2018-Jan-08 06:00N 34°09' W 119°12'0 0.0
2018-Jan-08 05:31N 34°09' W 119°12'0 0.0
2018-Jan-08 05:00N 34°09' W 119°12'0 0.0
2018-Jan-08 04:29N 34°09' W 119°12'0 0.0
2018-Jan-08 03:56N 34°09' W 119°12'  
Track history (hours):
 
Tides and Currents Weather Stations Pressure Air Temp Water Temp Dewpoint Dewpoint Depression Visibility Wind Speed Wind Dir Waves Ship Positions

Capt. T Le

Owner: SO CAL SHIP SERVICES, INC, TERMINAL ISLAND, CA. More information available from US FCC via Universal Licensing System and Coast Guard Vessel Documentation Center.

Last reported at 2018-Jan-18 03:56 UTC. Time now 2018-Jan-18 04:15 UTC.
Position N 34°09' W 119°12'.

Length 38 m; draft 2 m.

Type: Ship (hazmat cat B). MMSI: 367104030.

Date/timePositionNaut miles runAvg speedWind from/ knotsBaromVisibWave heightAir tempDewpointWater temp
2018-Jan-18 03:56N 34°09' W 119°12'510.4
2018-Jan-18 03:27N 34°10' W 119°18'612.6
2018-Jan-18 02:59N 34°11' W 119°25'613.6
2018-Jan-18 02:30N 34°09' W 119°18'5 8.7
2018-Jan-18 01:59N 34°09' W 119°12'0 0.7
2018-Jan-18 01:29N 34°09' W 119°13'4 7.8
2018-Jan-18 01:00N 34°07' W 119°17'1 1.1
2018-Jan-18 00:00N 34°08' W 119°18'217.2
2018-Jan-17 23:54N 34°08' W 119°20'  
2018-Jan-12 14:56N 34°08' W 119°14'1 3.0
2018-Jan-12 14:29N 34°09' W 119°12'0 0.0
2018-Jan-12 13:55N 34°09' W 119°12'0 0.0
2018-Jan-12 13:29N 34°09' W 119°12'0 0.0
2018-Jan-12 12:59N 34°09' W 119°12'0 0.0
2018-Jan-12 12:29N 34°09' W 119°12'0 0.0
2018-Jan-12 11:57N 34°09' W 119°12'0 0.0
2018-Jan-12 11:30N 34°09' W 119°12'0 0.0
2018-Jan-12 10:58N 34°09' W 119°12'0 0.0
2018-Jan-12 10:25N 34°09' W 119°12'0 0.0
2018-Jan-12 10:00N 34°09' W 119°12'0 0.0
2018-Jan-12 09:30N 34°09' W 119°12'0 0.0
2018-Jan-12 08:58N 34°09' W 119°12'0 0.0
2018-Jan-12 08:25N 34°09' W 119°12'0 0.0
2018-Jan-12 08:00N 34°09' W 119°12'0 0.0
2018-Jan-12 07:31N 34°09' W 119°12'0 0.0
2018-Jan-12 06:58N 34°09' W 119°12'0 0.0
2018-Jan-12 06:28N 34°09' W 119°12'0 0.0
2018-Jan-12 06:00N 34°09' W 119°12'0 0.0
2018-Jan-12 05:29N 34°09' W 119°12'0 0.0
2018-Jan-12 05:01N 34°09' W 119°12'0 0.0
2018-Jan-12 04:30N 34°09' W 119°12'0 0.0
2018-Jan-12 03:59N 34°09' W 119°12'4 8.1
2018-Jan-12 03:30N 34°09' W 119°17'713.7
2018-Jan-12 03:00N 34°11' W 119°25'1017.4
2018-Jan-12 02:27N 34°09' W 119°13'1 2.7
2018-Jan-12 02:01N 34°09' W 119°12'1 1.7
2018-Jan-12 01:31N 34°09' W 119°13'0 0.9
2018-Jan-12 01:00N 34°09' W 119°13'1 1.1
2018-Jan-12 00:30N 34°08' W 119°13'4 7.9
2018-Jan-11 23:59N 34°10' W 119°18'510.9
2018-Jan-11 23:30N 34°10' W 119°24'612.3
2018-Jan-11 23:00N 34°08' W 119°17'714.0
2018-Jan-11 22:29N 34°11' W 119°25'0 0.0
2018-Jan-11 21:58N 34°11' W 119°25'511.7
2018-Jan-11 21:30N 34°16' W 119°29'612.4
2018-Jan-11 21:00N 34°21' W 119°32'2 4.0
2018-Jan-11 20:30N 34°23' W 119°30'0 0.0
2018-Jan-11 19:57N 34°23' W 119°30'0 0.2
2018-Jan-11 19:27N 34°23' W 119°31'1 1.1
2018-Jan-11 18:59N 34°23' W 119°31'3 6.5
2018-Jan-11 18:27N 34°19' W 119°31'916.7
2018-Jan-11 17:56N 34°12' W 119°26'1 1.8
2018-Jan-11 17:30N 34°11' W 119°25'612.0
2018-Jan-11 16:59N 34°09' W 119°18'4 7.9
2018-Jan-11 16:30N 34°08' W 119°14'612.7
2018-Jan-11 16:00N 34°10' W 119°21'2 3.6
2018-Jan-11 15:30N 34°10' W 119°23'713.6
2018-Jan-11 15:00N 34°08' W 119°15'3 5.6
2018-Jan-11 14:30N 34°09' W 119°12'0 0.0
2018-Jan-11 13:57N 34°09' W 119°12'0 0.8
2018-Jan-11 13:30N 34°09' W 119°13'0 0.6
2018-Jan-11 13:00N 34°09' W 119°13'1 1.1
2018-Jan-11 12:29N 34°09' W 119°12'0 0.0
2018-Jan-11 12:00N 34°09' W 119°12'0 0.0
2018-Jan-11 11:30N 34°09' W 119°12'0 0.0
2018-Jan-11 11:00N 34°09' W 119°12'0 0.0
2018-Jan-11 10:28N 34°09' W 119°12'0 0.0
2018-Jan-11 09:58N 34°09' W 119°12'0 0.0
2018-Jan-11 09:28N 34°09' W 119°12'0 0.0
2018-Jan-11 08:57N 34°09' W 119°12'0 0.0
2018-Jan-11 08:30N 34°09' W 119°12'0 0.0
2018-Jan-11 07:54N 34°09' W 119°12'0 0.0
2018-Jan-11 07:24N 34°09' W 119°12'0 0.0
2018-Jan-11 06:58N 34°09' W 119°12'0 0.0
2018-Jan-11 06:29N 34°09' W 119°12'0 0.0
2018-Jan-11 05:54N 34°09' W 119°12'0 0.0
2018-Jan-11 05:28N 34°09' W 119°12'0 0.0
2018-Jan-11 05:00N 34°09' W 119°12'0 0.0
2018-Jan-11 04:27N 34°09' W 119°12'0 0.0
2018-Jan-11 03:59N 34°09' W 119°12'3 5.9
2018-Jan-11 03:30N 34°09' W 119°16'815.6
2018-Jan-11 02:59N 34°11' W 119°25'4 9.0
2018-Jan-11 02:30N 34°10' W 119°20'712.3
2018-Jan-11 01:58N 34°09' W 119°12'0 0.0
2018-Jan-11 01:30N 34°09' W 119°12'4 8.5
2018-Jan-11 01:01N 34°07' W 119°17'4 8.2
2018-Jan-11 00:30N 34°09' W 119°12'4 8.4
2018-Jan-11 00:01N 34°07' W 119°17'815.3
2018-Jan-10 23:30N 34°11' W 119°25'5 8.2
2018-Jan-10 22:57N 34°09' W 119°20'3 6.7
2018-Jan-10 22:30N 34°07' W 119°17'3 6.7
2018-Jan-10 22:01N 34°08' W 119°13'0 0.0
2018-Jan-10 18:44N 34°09' W 119°13'1 3.2
2018-Jan-10 18:30N 34°09' W 119°12'4 7.9
2018-Jan-10 17:58N 34°07' W 119°17'4 8.3
2018-Jan-10 17:30N 34°09' W 119°12'0 0.0
2018-Jan-10 17:00N 34°09' W 119°12'1 1.5
2018-Jan-10 16:30N 34°08' W 119°13'916.4
2018-Jan-10 15:58N 34°11' W 119°24'2 3.7
2018-Jan-10 15:29N 34°09' W 119°22'612.3
2018-Jan-10 15:00N 34°08' W 119°15'3 5.3
2018-Jan-10 14:27N 34°09' W 119°12'0 0.4
2018-Jan-10 14:00N 34°09' W 119°12'2 4.3
2018-Jan-10 13:30N 34°08' W 119°15'2 4.4
2018-Jan-10 12:59N 34°09' W 119°12'0 0.1
2018-Jan-10 12:28N 34°09' W 119°12'0 0.0
2018-Jan-10 12:00N 34°09' W 119°12'0 0.0
2018-Jan-10 11:24N 34°09' W 119°12'0 0.0
2018-Jan-10 10:56N 34°09' W 119°12'0 0.0
2018-Jan-10 10:27N 34°09' W 119°12'0 0.0
2018-Jan-10 09:59N 34°09' W 119°12'0 0.0
2018-Jan-10 09:26N 34°09' W 119°12'0 0.0
2018-Jan-10 08:53N 34°09' W 119°12'0 0.0
2018-Jan-10 08:03N 34°09' W 119°12'0 0.0
2018-Jan-10 07:58N 34°09' W 119°12'0 0.0
2018-Jan-10 07:30N 34°09' W 119°12'0 0.0
2018-Jan-10 07:00N 34°09' W 119°12'0 0.0
2018-Jan-10 06:28N 34°09' W 119°12'0 0.0
2018-Jan-10 06:00N 34°09' W 119°12'0 0.0
2018-Jan-10 05:30N 34°09' W 119°12'0 0.0
2018-Jan-10 04:56N 34°09' W 119°12'0 0.0
2018-Jan-10 04:28N 34°09' W 119°12'0 0.0
2018-Jan-10 03:59N 34°09' W 119°12'0 0.0
2018-Jan-10 03:29N 34°09' W 119°12'0 0.0
2018-Jan-10 02:59N 34°09' W 119°12'0 0.0
2018-Jan-10 02:27N 34°09' W 119°12'0 0.0
2018-Jan-10 01:59N 34°09' W 119°12'2 4.5
2018-Jan-10 01:30N 34°09' W 119°15'917.1
2018-Jan-10 01:00N 34°11' W 119°25'814.8
2018-Jan-10 00:30N 34°09' W 119°16'2 3.1
2018-Jan-10 00:00N 34°08' W 119°15'714.4
2018-Jan-09 23:30N 34°10' W 119°23'2 3.5
2018-Jan-09 23:01N 34°11' W 119°25'0 0.0
2018-Jan-09 22:26N 34°11' W 119°25'1 1.4
2018-Jan-09 22:00N 34°11' W 119°25'913.8
2018-Jan-09 21:22N 34°09' W 119°14'1 3.8
2018-Jan-09 20:59N 34°09' W 119°12'0 0.0
2018-Jan-09 20:29N 34°09' W 119°12'0 0.0
2018-Jan-09 20:00N 34°09' W 119°12'0 0.6
2018-Jan-09 19:28N 34°09' W 119°12'2 4.7
2018-Jan-09 19:00N 34°09' W 119°15'815.4
2018-Jan-09 18:31N 34°11' W 119°24'1 2.7
2018-Jan-09 18:00N 34°11' W 119°25'816.0
2018-Jan-09 17:30N 34°09' W 119°16'3 5.7
2018-Jan-09 16:58N 34°09' W 119°12'0 0.0
2018-Jan-09 16:30N 34°09' W 119°12'610.3
2018-Jan-09 15:57N 34°08' W 119°19'4 9.1
2018-Jan-09 15:29N 34°10' W 119°24'814.1
2018-Jan-09 14:56N 34°08' W 119°15'3 5.3
2018-Jan-09 14:26N 34°09' W 119°12'0 0.0
2018-Jan-09 14:00N 34°09' W 119°12'0 0.0
2018-Jan-09 13:30N 34°09' W 119°12'0 0.0
2018-Jan-09 13:00N 34°09' W 119°12'0 0.0
2018-Jan-09 12:22N 34°09' W 119°12'0 0.0
2018-Jan-09 11:53N 34°09' W 119°12'0 0.0
2018-Jan-09 11:30N 34°09' W 119°12'0 0.0
2018-Jan-09 10:57N 34°09' W 119°12'0 0.0
2018-Jan-09 10:30N 34°09' W 119°12'0 0.0
2018-Jan-09 09:58N 34°09' W 119°12'0 0.0
2018-Jan-09 09:29N 34°09' W 119°12'0 0.0
2018-Jan-09 09:00N 34°09' W 119°12'0 0.0
2018-Jan-09 08:30N 34°09' W 119°12'0 0.0
2018-Jan-09 08:00N 34°09' W 119°12'0 0.0
2018-Jan-09 07:30N 34°09' W 119°12'0 0.0
2018-Jan-09 06:54N 34°09' W 119°12'0 0.0
2018-Jan-09 06:27N 34°09' W 119°12'0 0.0
2018-Jan-09 06:00N 34°09' W 119°12'0 0.0
2018-Jan-09 05:30N 34°09' W 119°12'0 0.0
2018-Jan-09 05:00N 34°09' W 119°12'0 0.0
2018-Jan-09 04:27N 34°09' W 119°12'0 0.0
2018-Jan-09 04:00N 34°09' W 119°12'0 0.0
2018-Jan-09 03:26N 34°09' W 119°12'0 0.0
2018-Jan-09 03:00N 34°09' W 119°12'0 0.0
2018-Jan-09 02:23N 34°09' W 119°12'0 0.0
2018-Jan-09 02:00N 34°09' W 119°12'0 0.0
2018-Jan-09 01:29N 34°09' W 119°12'0 0.0
2018-Jan-09 01:00N 34°09' W 119°12'0 0.0
2018-Jan-09 00:30N 34°09' W 119°12'4 7.5
2018-Jan-09 00:00N 34°07' W 119°16'814.8
2018-Jan-08 23:30N 34°11' W 119°24'2 5.0
2018-Jan-08 23:00N 34°10' W 119°21'815.0
2018-Jan-08 22:30N 34°09' W 119°12'3 6.1
2018-Jan-08 22:00N 34°07' W 119°16'3 6.7
2018-Jan-08 21:30N 34°09' W 119°12'0 0.4
2018-Jan-08 21:00N 34°09' W 119°12'712.5
2018-Jan-08 20:29N 34°09' W 119°20'5 9.8
2018-Jan-08 20:00N 34°11' W 119°25'0 0.0
2018-Jan-08 19:30N 34°11' W 119°25'0 0.0
2018-Jan-08 19:00N 34°11' W 119°25'0 0.0
2018-Jan-08 18:27N 34°11' W 119°25'0 0.0
2018-Jan-08 18:00N 34°11' W 119°25'0 0.0
2018-Jan-08 17:30N 34°11' W 119°25'0 0.0
2018-Jan-08 17:00N 34°11' W 119°25'0 0.1
2018-Jan-08 16:27N 34°11' W 119°25'1 2.9
2018-Jan-08 16:00N 34°10' W 119°24'814.9
2018-Jan-08 15:28N 34°08' W 119°15'2 5.1
2018-Jan-08 14:59N 34°09' W 119°12'0 0.0
2018-Jan-08 14:29N 34°09' W 119°12'0 0.0
2018-Jan-08 13:58N 34°09' W 119°12'0 0.0
2018-Jan-08 13:29N 34°09' W 119°12'0 0.0
2018-Jan-08 13:00N 34°09' W 119°12'0 0.0
2018-Jan-08 12:30N 34°09' W 119°12'0 0.0
2018-Jan-08 12:00N 34°09' W 119°12'0 0.0
2018-Jan-08 11:30N 34°09' W 119°12'0 0.0
2018-Jan-08 10:58N 34°09' W 119°12'0 0.0
2018-Jan-08 10:30N 34°09' W 119°12'0 0.0
2018-Jan-08 10:00N 34°09' W 119°12'0 0.0
2018-Jan-08 09:29N 34°09' W 119°12'0 0.0
2018-Jan-08 08:59N 34°09' W 119°12'0 0.0
2018-Jan-08 08:30N 34°09' W 119°12'0 0.0
2018-Jan-08 08:00N 34°09' W 119°12'0 0.0
2018-Jan-08 07:30N 34°09' W 119°12'0 0.0
2018-Jan-08 06:55N 34°09' W 119°12'0 0.0
2018-Jan-08 06:30N 34°09' W 119°12'0 0.0
2018-Jan-08 06:00N 34°09' W 119°12'0 0.0
2018-Jan-08 05:31N 34°09' W 119°12'0 0.0
2018-Jan-08 05:00N 34°09' W 119°12'0 0.0
2018-Jan-08 04:29N 34°09' W 119°12'0 0.0
2018-Jan-08 03:56N 34°09' W 119°12'  

Dump ship's entire track history